Time;durP1;ratioP1;P1;durP2;ratioP2;P2;SDS_P1;SDS_P2;PMS_P1;PMS_P2;Temp;Humidity;BMP_temperature;BMP_pressure;BME280_temperature;BME280_humidity;BME280_pressure;Samples;Min_cycle;Max_cycle;Signal;HPM_P1;HPM_P2
2022/05/30 00:00:07;;;;;;;;;2.67;2.67;;;;;15.82;45.89;100738.63;2084530;28;47480;-60
2022/05/30 00:01:17;;;;;;;;;2.00;1.25;;;;;15.81;46.12;100732.41;2078777;28;47659;-58
2022/05/30 00:02:18;;;;;;;;;0.50;0.50;;;;;15.79;46.13;100736.09;2092963;28;47681;-58
2022/05/30 00:03:19;;;;;;;;;0.67;0.67;;;;;15.77;45.86;100743.34;2083436;28;48044;-56
2022/05/30 00:04:20;;;;;;;;;0.75;0.75;;;;;15.76;46.15;100733.56;2079925;27;47485;-58
2022/05/30 00:05:23;;;;;;;;;1.33;1.33;;;;;15.76;46.04;100737.13;2093573;27;47736;-57
2022/05/30 00:06:23;;;;;;;;;1.25;1.25;;;;;15.75;45.91;100739.81;2078530;28;47791;-57
2022/05/30 00:07:24;;;;;;;;;2.33;1.67;;;;;15.73;45.85;100741.69;2069590;27;47288;-59
2022/05/30 00:08:24;;;;;;;;;2.00;2.00;;;;;15.71;46.32;100736.41;2092950;28;48174;-59
2022/05/30 00:09:24;;;;;;;;;1.33;1.33;;;;;15.69;46.40;100735.63;2071942;27;47727;-59
2022/05/30 00:10:25;;;;;;;;;2.00;2.00;;;;;15.68;46.42;100736.56;2082769;28;46862;-59
2022/05/30 00:11:27;;;;;;;;;1.67;1.67;;;;;15.67;46.12;100736.63;2073298;28;47151;-57
2022/05/30 00:12:28;;;;;;;;;0.00;0.00;;;;;15.65;46.32;100739.38;2101875;28;47585;-59
2022/05/30 00:13:28;;;;;;;;;1.00;1.00;;;;;15.65;46.07;100742.03;2098271;28;47399;-58
2022/05/30 00:14:29;;;;;;;;;1.00;1.00;;;;;15.66;46.25;100737.56;2072082;28;48013;-59
2022/05/30 00:15:32;;;;;;;;;1.00;1.00;;;;;15.65;46.22;100739.38;2084023;27;47832;-59
2022/05/30 00:16:34;;;;;;;;;2.00;2.00;;;;;15.65;46.64;100734.03;2081103;27;48134;-59
2022/05/30 00:17:35;;;;;;;;;1.75;1.75;;;;;15.65;46.50;100738.50;2060712;28;47933;-59
2022/05/30 00:18:35;;;;;;;;;2.00;2.00;;;;;15.65;46.49;100738.50;2072116;28;47987;-57
2022/05/30 00:19:37;;;;;;;;;1.67;1.67;;;;;15.63;46.60;100733.22;2077204;28;48147;-57
2022/05/30 00:20:43;;;;;;;;;1.50;1.50;;;;;15.63;46.73;100730.53;2073376;27;47776;-58
2022/05/30 00:21:44;;;;;;;;;2.00;2.00;;;;;15.63;46.08;100732.34;2080912;28;47818;-57
2022/05/30 00:22:44;;;;;;;;;1.67;1.67;;;;;15.59;46.44;100729.78;2074501;28;47360;-58
2022/05/30 00:23:44;;;;;;;;;3.00;2.00;;;;;15.59;46.95;100732.47;2077733;27;47562;-59
2022/05/30 00:24:45;;;;;;;;;6.50;6.50;;;;;15.57;46.44;100728.94;2070032;27;47999;-54
2022/05/30 00:25:45;;;;;;;;;1.67;0.67;;;;;15.57;46.94;100726.28;2053690;28;47680;-59
2022/05/30 00:26:46;;;;;;;;;2.00;2.00;;;;;15.57;46.84;100725.41;2074536;28;48152;-60
2022/05/30 00:27:47;;;;;;;;;1.00;1.00;;;;;15.57;46.69;100726.28;2070259;28;47625;-60
2022/05/30 00:28:47;;;;;;;;;4.33;4.33;;;;;15.57;47.06;100714.69;2070505;28;48113;-58
2022/05/30 00:29:48;;;;;;;;;1.67;1.67;;;;;15.56;46.93;100713.84;2075517;28;47602;-59
2022/05/30 00:30:49;;;;;;;;;1.67;1.67;;;;;15.56;47.03;100723.66;2075044;28;46711;-58
2022/05/30 00:31:50;;;;;;;;;0.75;0.75;;;;;15.56;46.93;100718.31;2070552;28;48156;-58
2022/05/30 00:32:50;;;;;;;;;2.50;2.50;;;;;15.56;47.26;100721.00;2070688;28;48105;-59
2022/05/30 00:33:51;;;;;;;;;2.00;2.00;;;;;15.55;46.94;100720.13;2070654;28;47610;-60
2022/05/30 00:34:52;;;;;;;;;0.67;0.67;;;;;15.54;46.93;100721.06;2074696;27;47844;-58
2022/05/30 00:35:52;;;;;;;;;2.00;2.00;;;;;15.52;47.04;100719.38;2073097;28;47399;-57
2022/05/30 00:36:54;;;;;;;;;2.67;2.67;;;;;15.52;47.01;100722.06;2103293;28;46458;-56
2022/05/30 00:37:54;;;;;;;;;1.00;1.00;;;;;15.51;47.15;100718.53;2105828;27;47484;-55
2022/05/30 00:38:55;;;;;;;;;2.00;2.00;;;;;15.50;47.24;100722.13;2068988;27;47348;-56
2022/05/30 00:39:56;;;;;;;;;1.25;1.25;;;;;15.49;47.30;100722.16;2054153;28;47229;-58
2022/05/30 00:40:57;;;;;;;;;1.00;1.00;;;;;15.48;47.33;100721.31;2068299;28;48020;-57
2022/05/30 00:42:08;;;;;;;;;2.25;2.25;;;;;15.46;47.09;100728.53;2061950;28;47811;-59
2022/05/30 00:43:22;;;;;;;;;2.25;2.25;;;;;15.46;47.07;100717.81;2078172;28;47350;-59
2022/05/30 00:44:23;;;;;;;;;2.25;2.25;;;;;15.46;47.23;100711.59;2084997;28;47592;-57
2022/05/30 00:45:23;;;;;;;;;2.00;1.67;;;;;15.47;47.66;100718.69;2075526;28;47851;-57
2022/05/30 00:46:24;;;;;;;;;2.33;2.33;;;;;15.46;47.66;100714.28;2070332;28;48003;-58
2022/05/30 00:47:25;;;;;;;;;1.33;1.33;;;;;15.45;47.38;100708.06;2070499;28;47902;-57
2022/05/30 00:48:54;;;;;;;;;2.25;2.25;;;;;15.43;47.61;100712.63;2093951;28;47465;-57
2022/05/30 00:49:55;;;;;;;;;2.25;1.75;;;;;15.44;47.69;100710.81;2029233;29;48220;-57
2022/05/30 00:51:06;;;;;;;;;3.00;3.00;;;;;15.43;47.53;100706.41;2037185;28;47849;-58
2022/05/30 00:52:14;;;;;;;;;3.75;2.75;;;;;15.41;47.53;100698.44;2043217;28;47971;-55
2022/05/30 00:53:14;;;;;;;;;2.75;2.25;;;;;15.41;47.55;100708.28;2036946;28;48080;-57
2022/05/30 00:54:20;;;;;;;;;2.33;2.33;;;;;15.41;47.93;100702.91;2049851;28;47865;-54
2022/05/30 00:55:21;;;;;;;;;2.00;2.00;;;;;15.40;47.53;100710.06;2047116;28;48198;-57
2022/05/30 00:56:31;;;;;;;;;2.50;2.50;;;;;15.39;47.51;100705.66;2037382;28;47961;-55
2022/05/30 00:57:33;;;;;;;;;3.25;2.75;;;;;15.38;47.62;100698.56;2038015;28;48081;-59
2022/05/30 00:58:37;;;;;;;;;2.25;2.25;;;;;15.38;47.90;100700.38;2038423;28;47868;-57
2022/05/30 00:59:38;;;;;;;;;2.75;2.25;;;;;15.37;48.19;100699.47;2037144;28;47995;-58
2022/05/30 01:00:38;;;;;;;;;2.33;2.33;;;;;15.37;47.89;100701.28;2038018;28;48324;-58
2022/05/30 01:01:39;;;;;;;;;2.33;2.33;;;;;15.37;47.85;100698.63;2042725;28;48168;-56
2022/05/30 01:02:40;;;;;;;;;3.00;2.33;;;;;15.36;47.72;100702.22;2037006;28;48104;-59
2022/05/30 01:06:47;;;;;;;;;3.75;3.75;;;;;15.37;47.82;100699.47;2067704;28;48289;-58
2022/05/30 01:07:49;;;;;;;;;2.50;2.50;;;;;15.36;47.75;100694.19;2062012;28;47661;-57
2022/05/30 01:08:49;;;;;;;;;4.75;4.00;;;;;15.35;48.04;100697.81;2075032;28;47437;-57
2022/05/30 01:09:54;;;;;;;;;3.00;3.00;;;;;15.36;47.98;100695.06;2076660;28;47805;-56
2022/05/30 01:10:55;;;;;;;;;2.75;2.75;;;;;15.35;48.11;100690.66;2075232;28;47326;-58
2022/05/30 01:12:08;;;;;;;;;3.33;2.67;;;;;15.36;47.96;100688.84;2069834;28;46668;-55
2022/05/30 01:13:11;;;;;;;;;1.50;1.25;;;;;15.37;48.04;100693.25;2070027;28;47762;-57
2022/05/30 01:14:12;;;;;;;;;2.25;2.25;;;;;15.37;48.05;100685.25;2070392;28;48124;-58
2022/05/30 01:15:14;;;;;;;;;2.33;2.33;;;;;15.37;48.17;100690.59;2071479;28;47616;-57
2022/05/30 01:16:14;;;;;;;;;1.25;1.25;;;;;15.37;48.50;100696.81;2071538;28;47385;-58
2022/05/30 01:17:16;;;;;;;;;2.33;2.33;;;;;15.35;48.32;100682.63;2070126;28;47418;-58
2022/05/30 01:18:39;;;;;;;;;3.50;3.50;;;;;15.35;48.22;100685.31;2071307;28;47618;-57
2022/05/30 01:19:58;;;;;;;;;2.75;2.75;;;;;15.32;48.13;100683.63;2070231;28;48205;-58
2022/05/30 01:21:35;;;;;;;;;2.00;2.00;;;;;15.31;48.40;100675.69;2070650;28;48411;-56
2022/05/30 01:22:55;;;;;;;;;2.75;2.75;;;;;15.28;48.38;100678.50;2062697;28;47521;-59
2022/05/30 01:24:14;;;;;;;;;2.00;2.00;;;;;15.28;48.36;100683.84;2070142;28;47496;-58
2022/05/30 01:25:23;;;;;;;;;3.75;3.00;;;;;15.24;48.64;100677.72;2070530;28;48176;-56
2022/05/30 01:26:35;;;;;;;;;3.25;3.25;;;;;15.22;48.75;100684.94;2070359;28;47674;-56
2022/05/30 01:27:52;;;;;;;;;3.75;2.75;;;;;15.21;48.62;100683.22;2074505;28;47965;-55
2022/05/30 01:29:04;;;;;;;;;3.75;3.75;;;;;15.19;48.91;100681.53;2078195;28;47587;-55
2022/05/30 01:30:10;;;;;;;;;3.25;3.25;;;;;15.19;48.63;100681.53;2078511;28;47599;-56
2022/05/30 01:31:11;;;;;;;;;4.00;4.00;;;;;15.17;48.94;100680.75;2079239;28;46677;-57
2022/05/30 01:32:20;;;;;;;;;4.00;4.00;;;;;15.18;48.77;100682.47;2078846;28;47559;-57
2022/05/30 01:33:21;;;;;;;;;4.75;3.75;;;;;15.18;48.74;100678.00;2079164;28;47848;-56
2022/05/30 01:34:23;;;;;;;;;5.00;5.00;;;;;15.17;48.76;100683.41;2078571;28;47904;-55
2022/05/30 01:35:25;;;;;;;;;3.25;3.25;;;;;15.15;48.88;100675.47;2078638;28;46547;-57
2022/05/30 01:36:29;;;;;;;;;7.50;6.25;;;;;15.15;49.17;100679.94;2077978;28;47961;-57
2022/05/30 01:37:29;;;;;;;;;5.75;5.75;;;;;15.16;48.98;100684.34;2078900;28;47206;-57
2022/05/30 01:38:30;;;;;;;;;4.00;4.00;;;;;15.14;49.01;100680.88;2071688;28;47305;-57
2022/05/30 01:39:30;;;;;;;;;5.33;5.33;;;;;15.14;49.10;100680.88;2077527;28;47842;-58
2022/05/30 01:40:31;;;;;;;;;5.33;5.33;;;;;15.13;48.62;100676.47;2063386;28;47835;-57
2022/05/30 01:41:32;;;;;;;;;6.67;6.67;;;;;15.12;48.83;100677.38;2063460;28;47823;-57
2022/05/30 01:42:32;;;;;;;;;5.33;5.33;;;;;15.11;48.79;100681.84;2079966;28;47700;-58
2022/05/30 01:43:34;;;;;;;;;5.33;5.33;;;;;15.10;49.09;100680.09;2058038;28;47595;-56
2022/05/30 01:44:34;;;;;;;;;4.25;4.25;;;;;15.10;49.09;100673.88;2106172;27;47612;-58
2022/05/30 01:45:34;;;;;;;;;5.67;5.67;;;;;15.09;48.96;100686.38;2088311;27;47558;-58
2022/05/30 01:46:35;;;;;;;;;6.00;5.00;;;;;15.08;49.13;100683.78;2071272;28;47226;-58
2022/05/30 01:47:36;;;;;;;;;8.25;6.50;;;;;15.07;49.38;100682.03;2100408;28;48063;-58
2022/05/30 01:48:36;;;;;;;;;6.00;6.00;;;;;15.06;48.72;100680.31;2090652;27;47202;-58
2022/05/30 01:49:37;;;;;;;;;5.00;5.00;;;;;15.03;49.21;100681.31;2071551;28;47514;-58
2022/05/30 01:50:37;;;;;;;;;5.33;5.33;;;;;15.02;49.20;100677.75;2093058;28;47234;-59
2022/05/30 01:51:38;;;;;;;;;6.00;6.00;;;;;15.01;49.10;100677.84;2084639;28;47678;-56
2022/05/30 01:52:38;;;;;;;;;6.00;6.00;;;;;15.00;49.30;100684.13;2053885;28;47154;-59
2022/05/30 01:53:39;;;;;;;;;7.33;6.33;;;;;14.99;49.44;100677.00;2067115;28;47964;-56
2022/05/30 01:54:39;;;;;;;;;7.67;4.67;;;;;14.97;49.43;100682.41;2071458;28;48002;-57
2022/05/30 01:55:40;;;;;;;;;4.67;4.67;;;;;14.97;49.53;100677.06;2071307;28;47725;-58
2022/05/30 01:56:40;;;;;;;;;5.00;5.00;;;;;14.96;49.49;100678.00;2079121;28;47864;-58
2022/05/30 01:57:41;;;;;;;;;6.00;6.00;;;;;14.96;49.46;100685.16;2105971;27;47182;-59
2022/05/30 01:58:41;;;;;;;;;7.00;7.00;;;;;14.95;49.51;100678.94;2081590;27;47298;-58
2022/05/30 01:59:41;;;;;;;;;10.25;10.25;;;;;14.93;49.34;100680.81;2071727;28;47478;-58
2022/05/30 02:00:42;;;;;;;;;11.75;11.75;;;;;14.92;49.92;100679.06;2106267;27;48037;-55
2022/05/30 02:01:45;;;;;;;;;11.25;10.25;;;;;14.92;49.64;100675.53;2103231;27;47656;-57
2022/05/30 02:02:45;;;;;;;;;14.40;12.80;;;;;14.90;49.72;100677.38;2105747;27;47162;-57
2022/05/30 02:03:47;;;;;;;;;12.00;12.00;;;;;14.87;49.78;100678.38;2055789;28;47547;-58
2022/05/30 02:04:48;;;;;;;;;14.00;14.00;;;;;14.85;49.56;100679.34;2066941;28;47753;-59
2022/05/30 02:05:48;;;;;;;;;10.00;10.00;;;;;14.84;49.72;100678.50;2106162;27;47481;-59
2022/05/30 02:06:48;;;;;;;;;11.50;10.50;;;;;14.83;49.69;100687.44;2081935;27;47974;-59
2022/05/30 02:07:49;;;;;;;;;10.75;8.25;;;;;14.82;49.46;100688.38;2066868;28;47325;-56
2022/05/30 02:08:50;;;;;;;;;11.50;10.50;;;;;14.82;49.91;100688.38;2079816;27;47579;-58
2022/05/30 02:09:50;;;;;;;;;13.40;13.40;;;;;14.82;49.62;100687.50;2082249;28;47880;-58
2022/05/30 02:10:51;;;;;;;;;13.25;10.75;;;;;14.81;49.44;100685.75;2070426;28;47915;-57
2022/05/30 02:11:51;;;;;;;;;13.00;12.00;;;;;14.80;49.74;100689.38;2070071;28;48110;-58
2022/05/30 02:12:52;;;;;;;;;11.00;11.00;;;;;14.79;49.85;100688.50;2081306;28;47533;-58
2022/05/30 02:13:53;;;;;;;;;11.25;9.75;;;;;14.79;49.75;100692.97;2054461;28;48425;-57
2022/05/30 02:14:53;;;;;;;;;3.50;3.50;;;;;14.78;50.04;100686.75;2066969;28;47704;-57
2022/05/30 02:17:13;;;;;;;;;7.25;7.25;;;;;14.75;50.04;100689.56;2055335;28;48051;-57
2022/05/30 02:18:13;;;;;;;;;5.75;5.75;;;;;14.72;49.96;100686.97;2077340;28;47858;-58
2022/05/30 02:19:14;;;;;;;;;9.00;9.00;;;;;14.71;49.94;100686.13;2105823;27;47214;-57
2022/05/30 02:20:14;;;;;;;;;8.00;7.50;;;;;14.70;50.06;100686.19;2103382;27;47851;-55
2022/05/30 02:21:15;;;;;;;;;6.67;6.67;;;;;14.70;50.31;100686.19;2103928;27;47606;-60
2022/05/30 02:22:19;;;;;;;;;5.00;5.00;;;;;14.69;50.30;100681.78;2106140;27;47640;-59
2022/05/30 02:23:19;;;;;;;;;5.25;5.25;;;;;14.68;49.94;100680.91;2103355;27;47651;-59
2022/05/30 02:24:21;;;;;;;;;6.33;6.33;;;;;14.69;50.04;100676.44;2103547;27;47120;-57
2022/05/30 02:25:21;;;;;;;;;6.25;6.25;;;;;14.67;49.98;100679.16;2105825;27;47662;-59
2022/05/30 02:26:22;;;;;;;;;6.67;5.33;;;;;14.67;50.29;100683.63;2103653;27;47504;-56
2022/05/30 02:27:23;;;;;;;;;4.67;3.67;;;;;14.65;50.24;100683.69;2105944;27;47130;-56
2022/05/30 02:28:24;;;;;;;;;5.75;5.75;;;;;14.65;50.35;100680.16;2104046;27;47895;-56
2022/05/30 02:29:24;;;;;;;;;4.00;4.00;;;;;14.64;50.19;100686.44;2103881;27;47516;-56
2022/05/30 02:30:25;;;;;;;;;6.67;5.00;;;;;14.64;50.43;100683.75;2105449;27;47704;-57
2022/05/30 02:31:25;;;;;;;;;5.67;5.67;;;;;14.63;50.59;100682.91;2103958;27;47650;-57
2022/05/30 02:32:26;;;;;;;;;3.67;3.33;;;;;14.63;50.23;100688.22;2099595;27;47832;-57
2022/05/30 02:37:24;;;;;;;;;4.50;4.50;;;;;14.63;50.82;100685.56;2054600;28;48117;-58
2022/05/30 02:38:25;;;;;;;;;4.00;3.75;;;;;14.62;50.49;100694.50;2056406;28;48367;-58
2022/05/30 02:39:28;;;;;;;;;3.25;3.25;;;;;14.60;50.43;100682.13;2057834;28;47755;-57
2022/05/30 02:40:28;;;;;;;;;4.00;4.00;;;;;14.59;50.71;100689.25;2062687;28;48157;-57
2022/05/30 02:41:28;;;;;;;;;4.33;4.00;;;;;14.58;50.78;100682.19;2060506;28;47453;-56
2022/05/30 02:42:29;;;;;;;;;5.33;5.33;;;;;14.59;50.58;100688.41;2062992;28;47822;-58
2022/05/30 02:43:29;;;;;;;;;5.67;4.00;;;;;14.58;50.35;100684.84;2062779;28;47495;-58
2022/05/30 02:44:30;;;;;;;;;4.00;4.00;;;;;14.59;50.72;100675.03;2062872;28;48093;-58
2022/05/30 02:45:30;;;;;;;;;4.33;4.33;;;;;14.58;50.85;100687.53;2062457;28;47282;-56
2022/05/30 02:46:30;;;;;;;;;4.00;4.00;;;;;14.57;50.46;100684.91;2063292;28;47537;-59
2022/05/30 02:47:31;;;;;;;;;3.00;3.00;;;;;14.57;50.77;100688.47;2062873;28;47948;-56
2022/05/30 02:48:31;;;;;;;;;4.33;4.33;;;;;14.57;50.58;100692.94;2097656;28;48082;-56
2022/05/30 02:49:32;;;;;;;;;3.67;3.33;;;;;14.56;50.61;100689.38;2070209;27;47854;-58
2022/05/30 02:50:33;;;;;;;;;4.00;4.00;;;;;14.57;50.74;100692.94;2062859;28;47103;-58
2022/05/30 02:51:33;;;;;;;;;6.67;5.33;;;;;14.55;50.75;100695.66;2061931;28;48109;-58
2022/05/30 02:52:34;;;;;;;;;6.00;5.00;;;;;14.54;50.58;100693.94;2062700;28;46990;-57
2022/05/30 02:53:34;;;;;;;;;4.00;4.00;;;;;14.52;50.74;100694.91;2062646;28;47344;-58
2022/05/30 02:54:35;;;;;;;;;4.00;4.00;;;;;14.51;50.71;100693.19;2062998;28;48211;-59
2022/05/30 02:55:35;;;;;;;;;5.00;5.00;;;;;14.50;50.85;100694.97;2095595;28;47567;-58
2022/05/30 02:56:35;;;;;;;;;5.33;5.00;;;;;14.50;50.89;100696.78;2096251;28;47106;-57
2022/05/30 02:57:36;;;;;;;;;6.00;5.33;;;;;14.48;51.05;100688.81;2061690;28;47884;-57
2022/05/30 02:58:36;;;;;;;;;3.67;3.67;;;;;14.48;50.93;100687.94;2063028;28;47629;-59
2022/05/30 02:59:36;;;;;;;;;5.00;3.00;;;;;14.48;50.96;100686.13;2062044;28;48025;-58
2022/05/30 03:00:38;;;;;;;;;4.00;3.00;;;;;14.47;50.94;100689.72;2062396;28;47900;-57
2022/05/30 03:01:38;;;;;;;;;4.00;4.00;;;;;14.46;51.07;100682.66;2062347;27;45188;-57
2022/05/30 03:02:39;;;;;;;;;6.33;6.33;;;;;14.45;51.00;100682.72;2062726;28;48193;-57
2022/05/30 03:03:39;;;;;;;;;3.67;3.67;;;;;14.43;51.22;100683.63;2062674;28;47460;-57
2022/05/30 03:04:40;;;;;;;;;3.00;3.00;;;;;14.41;50.78;100679.25;2069615;28;47610;-57
2022/05/30 03:05:41;;;;;;;;;5.00;5.00;;;;;14.39;50.74;100676.66;2069724;28;47336;-57
2022/05/30 03:06:42;;;;;;;;;4.00;4.00;;;;;14.38;51.04;100685.59;2055481;28;48015;-56
2022/05/30 03:07:43;;;;;;;;;5.50;5.50;;;;;14.39;51.13;100686.47;2054615;28;47714;-55
2022/05/30 03:08:43;;;;;;;;;5.00;5.00;;;;;14.37;51.04;100683.00;2054625;28;47488;-54
2022/05/30 03:09:44;;;;;;;;;5.33;4.33;;;;;14.36;51.14;100684.78;2054477;28;47685;-56
2022/05/30 03:10:45;;;;;;;;;5.00;5.00;;;;;14.35;51.20;100680.34;2063117;28;47491;-56
2022/05/30 03:11:46;;;;;;;;;5.00;5.00;;;;;14.36;51.17;100683.94;2062417;28;47955;-57
2022/05/30 03:12:46;;;;;;;;;5.00;5.00;;;;;14.34;51.46;100683.09;2062704;28;47259;-58
2022/05/30 03:13:46;;;;;;;;;5.67;5.67;;;;;14.34;51.50;100683.09;2062575;28;48028;-56
2022/05/30 03:14:49;;;;;;;;;6.00;6.00;;;;;14.34;51.47;100685.75;2081975;28;48119;-57
2022/05/30 03:15:49;;;;;;;;;5.75;5.75;;;;;14.34;51.29;100688.41;2070768;28;46856;-57
2022/05/30 03:16:49;;;;;;;;;5.33;5.33;;;;;14.34;51.58;100691.09;2092278;28;47650;-59
2022/05/30 03:17:51;;;;;;;;;5.67;5.00;;;;;14.33;51.58;100690.22;2095903;28;48154;-58
2022/05/30 03:18:51;;;;;;;;;6.25;6.25;;;;;14.31;51.75;100686.75;2095858;28;48055;-56
2022/05/30 03:19:52;;;;;;;;;5.00;5.00;;;;;14.31;51.70;100693.88;2104115;27;47346;-55
2022/05/30 03:20:53;;;;;;;;;3.67;3.67;;;;;14.31;51.56;100691.22;2105748;27;47345;-58
2022/05/30 03:21:53;;;;;;;;;2.33;2.33;;;;;14.28;51.60;100689.53;2103777;27;48135;-57
2022/05/30 03:22:54;;;;;;;;;5.33;4.67;;;;;14.28;51.27;100696.69;2103503;27;47576;-58
2022/05/30 03:23:54;;;;;;;;;4.00;4.00;;;;;14.27;51.36;100684.25;2105232;28;47137;-58
2022/05/30 03:24:55;;;;;;;;;3.67;3.67;;;;;14.28;51.52;100696.69;2103565;28;45654;-55
2022/05/30 03:25:55;;;;;;;;;6.00;6.00;;;;;14.26;51.46;100687.84;2104042;27;47825;-58
2022/05/30 03:26:56;;;;;;;;;6.00;6.00;;;;;14.26;51.66;100687.84;2104729;28;47610;-57
2022/05/30 03:27:56;;;;;;;;;4.00;4.00;;;;;14.25;51.61;100702.13;2103484;28;47691;-57
2022/05/30 03:28:57;;;;;;;;;5.67;4.67;;;;;14.25;51.46;100700.34;2105647;27;47368;-58
2022/05/30 03:29:58;;;;;;;;;4.75;4.75;;;;;14.26;51.65;100698.53;2104715;27;47556;-57
2022/05/30 03:30:59;;;;;;;;;9.67;7.67;;;;;14.26;51.74;100698.53;2104365;27;47406;-57
2022/05/30 03:31:59;;;;;;;;;5.00;5.00;;;;;14.25;51.58;100697.66;2105196;27;48159;-59
2022/05/30 03:33:00;;;;;;;;;5.00;5.00;;;;;14.25;51.68;100699.47;2104289;27;47584;-59
2022/05/30 03:34:00;;;;;;;;;5.00;5.00;;;;;14.24;51.44;100692.38;2085120;27;47326;-59
2022/05/30 03:35:00;;;;;;;;;5.33;5.00;;;;;14.24;51.42;100697.72;2070962;28;48002;-59
2022/05/30 03:36:01;;;;;;;;;4.67;4.67;;;;;14.22;51.43;100695.09;2077638;28;47700;-56
2022/05/30 03:37:01;;;;;;;;;6.67;6.67;;;;;14.23;51.72;100690.63;2070070;28;47611;-55
2022/05/30 03:38:03;;;;;;;;;6.00;4.00;;;;;14.23;51.89;100691.53;2087183;28;47168;-57
2022/05/30 03:39:04;;;;;;;;;5.75;5.75;;;;;14.22;51.63;100687.06;2089203;28;47550;-56
2022/05/30 03:40:07;;;;;;;;;6.33;5.00;;;;;14.23;51.50;100693.28;2069900;28;47580;-58
2022/05/30 03:41:07;;;;;;;;;6.00;6.00;;;;;14.24;51.58;100700.41;2087335;28;47550;-56
2022/05/30 03:42:13;;;;;;;;;6.33;6.33;;;;;14.23;51.82;100691.53;2071932;28;48015;-59
2022/05/30 03:43:13;;;;;;;;;5.75;5.75;;;;;14.23;51.83;100691.53;2102806;27;47754;-58
2022/05/30 03:44:14;;;;;;;;;7.00;5.67;;;;;14.23;51.57;100690.63;2092590;28;46577;-56
2022/05/30 03:45:14;;;;;;;;;6.67;6.00;;;;;14.23;51.70;100693.28;2089246;27;47865;-58
2022/05/30 03:46:15;;;;;;;;;5.00;5.00;;;;;14.24;51.77;100700.41;2105198;27;47602;-57
2022/05/30 03:47:16;;;;;;;;;5.25;5.25;;;;;14.26;51.65;100687.84;2089430;27;47905;-54
2022/05/30 03:48:20;;;;;;;;;5.00;5.00;;;;;14.25;51.63;100689.66;2090924;27;46650;-57
2022/05/30 03:49:20;;;;;;;;;5.00;5.00;;;;;14.25;51.67;100691.47;2071119;28;47474;-58
2022/05/30 03:50:24;;;;;;;;;5.00;4.00;;;;;14.25;51.67;100692.31;2080893;28;46375;-58
2022/05/30 03:51:24;;;;;;;;;9.00;8.50;;;;;14.26;51.66;100693.19;2098126;27;47751;-57
2022/05/30 03:52:25;;;;;;;;;5.67;5.67;;;;;14.26;51.50;100693.19;2095558;27;47791;-57
2022/05/30 03:53:26;;;;;;;;;6.50;6.50;;;;;14.25;51.59;100696.81;2088768;27;47920;-56
2022/05/30 03:54:27;;;;;;;;;6.20;5.00;;;;;14.25;51.68;100689.66;2104921;27;47819;-56
2022/05/30 03:55:28;;;;;;;;;7.20;7.00;;;;;14.25;51.70;100688.78;2089545;28;47767;-58
2022/05/30 03:56:28;;;;;;;;;6.00;6.00;;;;;14.25;51.74;100691.47;2089377;28;48233;-55
2022/05/30 03:57:28;;;;;;;;;5.00;5.00;;;;;14.25;51.71;100692.31;2102895;28;45922;-57
2022/05/30 03:58:29;;;;;;;;;6.00;6.00;;;;;14.25;51.45;100695.00;2087969;27;47978;-54
2022/05/30 03:59:29;;;;;;;;;6.75;6.00;;;;;14.25;51.55;100699.47;2096783;27;47914;-58
2022/05/30 04:00:31;;;;;;;;;7.00;7.00;;;;;14.24;51.63;100695.94;2096244;28;47912;-58
2022/05/30 04:01:32;;;;;;;;;8.20;8.20;;;;;14.22;51.63;100697.75;2087422;27;47575;-58
2022/05/30 04:02:32;;;;;;;;;7.00;7.00;;;;;14.22;51.97;100696.88;2102750;27;47614;-57
2022/05/30 04:03:33;;;;;;;;;9.00;7.50;;;;;14.20;51.80;100698.75;2089678;28;47491;-58
2022/05/30 04:04:33;;;;;;;;;5.25;5.25;;;;;14.19;51.71;100700.53;2088553;27;47160;-58
2022/05/30 04:05:34;;;;;;;;;5.00;5.00;;;;;14.18;51.67;100706.81;2103798;28;47491;-58
2022/05/30 04:06:35;;;;;;;;;6.00;6.00;;;;;14.19;51.71;100707.69;2083448;27;47882;-56
2022/05/30 04:07:36;;;;;;;;;6.75;6.00;;;;;14.19;51.95;100707.69;2096105;27;46659;-56
2022/05/30 04:08:37;;;;;;;;;9.40;7.00;;;;;14.20;51.76;100704.09;2097057;28;47987;-57
2022/05/30 04:09:37;;;;;;;;;7.67;7.67;;;;;14.18;51.81;100700.59;2087026;27;47506;-59
2022/05/30 04:10:37;;;;;;;;;7.00;7.00;;;;;14.18;51.76;100705.94;2072995;27;47266;-58
2022/05/30 04:11:38;;;;;;;;;10.75;7.25;;;;;14.18;52.04;100709.47;2089819;28;47781;-57
2022/05/30 04:12:38;;;;;;;;;6.50;6.50;;;;;14.17;51.75;100705.06;2088583;27;47655;-58
2022/05/30 04:13:39;;;;;;;;;7.00;6.00;;;;;14.15;51.91;100701.59;2073649;28;48083;-55
2022/05/30 04:14:39;;;;;;;;;4.75;4.75;;;;;14.13;51.91;100706.13;2087782;28;47789;-57
2022/05/30 04:15:40;;;;;;;;;8.00;6.50;;;;;14.11;51.67;100707.97;2095016;27;47709;-57
2022/05/30 04:16:40;;;;;;;;;5.75;5.75;;;;;14.10;51.88;100707.13;2087016;28;47468;-57
2022/05/30 04:17:40;;;;;;;;;6.75;6.75;;;;;14.09;52.24;100707.13;2080703;27;47706;-58
2022/05/30 04:18:42;;;;;;;;;7.00;7.00;;;;;14.08;51.86;100713.41;2098213;28;47706;-57
2022/05/30 04:19:42;;;;;;;;;9.00;8.20;;;;;14.06;52.15;100712.59;2080747;28;47729;-57
2022/05/30 04:20:46;;;;;;;;;6.75;5.75;;;;;14.06;52.48;100716.13;2087579;27;47126;-57
2022/05/30 04:21:46;;;;;;;;;7.00;7.00;;;;;14.04;52.09;100712.66;2096479;28;48047;-57
2022/05/30 04:22:47;;;;;;;;;7.25;7.00;;;;;14.04;52.22;100720.66;2076994;27;47691;-57
2022/05/30 04:23:47;;;;;;;;;9.00;7.00;;;;;14.04;52.37;100726.00;2092798;28;47452;-57
2022/05/30 04:24:48;;;;;;;;;7.75;7.75;;;;;14.02;52.36;100719.84;2089422;28;47379;-57
2022/05/30 04:25:48;;;;;;;;;9.75;8.75;;;;;14.01;52.01;100718.09;2078539;27;47861;-56
2022/05/30 04:26:48;;;;;;;;;8.50;7.50;;;;;14.01;52.26;100720.78;2097770;28;47537;-57
2022/05/30 04:27:49;;;;;;;;;8.75;8.00;;;;;14.00;52.46;100724.38;2081800;28;47575;-55
2022/05/30 04:28:49;;;;;;;;;7.50;7.50;;;;;14.00;52.55;100715.50;2085588;27;47656;-57
2022/05/30 04:29:50;;;;;;;;;6.00;6.00;;;;;13.99;52.43;100719.97;2095746;28;47872;-57
2022/05/30 04:30:51;;;;;;;;;8.25;7.75;;;;;13.98;52.46;100720.91;2076119;27;47753;-57
2022/05/30 04:31:51;;;;;;;;;9.50;8.50;;;;;13.98;52.63;100714.69;2092932;27;47465;-57
2022/05/30 04:32:52;;;;;;;;;7.75;7.75;;;;;13.97;52.24;100713.78;2088530;28;47777;-57
2022/05/30 04:33:52;;;;;;;;;7.25;6.00;;;;;13.97;52.30;100713.78;2074885;27;47752;-59
2022/05/30 04:34:53;;;;;;;;;19.50;18.75;;;;;13.99;52.43;100721.75;2053720;28;47670;-58
2022/05/30 04:35:54;;;;;;;;;19.80;19.40;;;;;13.98;52.52;100720.03;2087544;28;47664;-58
2022/05/30 04:36:54;;;;;;;;;16.75;16.50;;;;;13.98;52.38;100720.91;2084818;27;47590;-58
2022/05/30 04:37:54;;;;;;;;;11.25;11.00;;;;;13.97;52.53;100724.47;2093144;27;47118;-58
2022/05/30 04:38:55;;;;;;;;;13.50;12.75;;;;;13.98;52.71;100722.69;2081554;28;47418;-58
2022/05/30 04:39:55;;;;;;;;;13.50;11.75;;;;;14.00;52.31;100720.84;2101602;27;47984;-58
2022/05/30 04:40:56;;;;;;;;;10.00;10.00;;;;;13.99;52.37;100722.63;2097851;28;47528;-57
2022/05/30 04:41:56;;;;;;;;;10.25;9.00;;;;;13.99;52.36;100722.63;2073050;28;47940;-57
2022/05/30 04:42:58;;;;;;;;;10.25;10.25;;;;;14.00;52.25;100720.84;2104508;27;47430;-57
2022/05/30 04:43:59;;;;;;;;;8.60;7.80;;;;;14.01;52.20;100717.25;2098946;27;47696;-55
2022/05/30 04:45:00;;;;;;;;;9.40;9.40;;;;;14.02;52.46;100710.97;2098529;27;47765;-58
2022/05/30 04:46:04;;;;;;;;;9.50;9.00;;;;;14.00;52.34;100716.38;2094727;28;47777;-58
2022/05/30 04:47:06;;;;;;;;;7.80;7.20;;;;;14.00;52.12;100713.69;2090111;28;47291;-57
2022/05/30 04:48:07;;;;;;;;;6.20;6.00;;;;;14.00;52.22;100720.84;2096945;27;47905;-57
2022/05/30 04:49:08;;;;;;;;;9.75;9.75;;;;;14.00;52.16;100716.38;2070833;28;47937;-59
2022/05/30 04:50:16;;;;;;;;;8.75;8.75;;;;;14.00;52.41;100708.38;2082549;28;47625;-58
2022/05/30 04:51:16;;;;;;;;;8.80;8.20;;;;;14.01;52.38;100711.91;2103862;27;47696;-58
2022/05/30 04:52:17;;;;;;;;;8.25;8.25;;;;;14.03;52.14;100715.38;2101419;28;47817;-59
2022/05/30 04:53:17;;;;;;;;;7.50;7.50;;;;;14.02;52.43;100717.19;2099922;27;47450;-58
2022/05/30 04:54:20;;;;;;;;;11.50;11.50;;;;;14.01;52.25;100718.09;2104848;27;47689;-59
2022/05/30 04:55:21;;;;;;;;;8.40;7.40;;;;;14.01;52.21;100720.78;2100800;27;48333;-58